sensor_id;sensor_type;location;lat;lon;timestamp;pressure;altitude;pressure_sealevel;temperature;humidity
76229;BME280;65021;53.174;18.160;2023-07-30T00:00:43;100227.45;;;16.94;99.94
76229;BME280;65021;53.174;18.160;2023-07-30T00:03:29;100222.40;;;16.94;99.99
76229;BME280;65021;53.174;18.160;2023-07-30T00:05:56;100225.05;;;16.93;100.00
76229;BME280;65021;53.174;18.160;2023-07-30T00:08:23;100227.13;;;16.94;99.91
76229;BME280;65021;53.174;18.160;2023-07-30T00:10:50;100230.59;;;16.95;99.94
76229;BME280;65021;53.174;18.160;2023-07-30T00:13:16;100243.61;;;16.91;100.00
76229;BME280;65021;53.174;18.160;2023-07-30T00:15:46;100244.98;;;16.88;100.00
76229;BME280;65021;53.174;18.160;2023-07-30T00:18:13;100246.79;;;16.89;100.00
76229;BME280;65021;53.174;18.160;2023-07-30T00:20:39;100246.93;;;16.91;100.00
76229;BME280;65021;53.174;18.160;2023-07-30T00:23:06;100245.02;;;16.92;99.99
76229;BME280;65021;53.174;18.160;2023-07-30T00:25:32;100240.45;;;16.92;100.00
76229;BME280;65021;53.174;18.160;2023-07-30T00:27:59;100236.67;;;16.93;100.00
76229;BME280;65021;53.174;18.160;2023-07-30T00:30:26;100241.01;;;16.93;100.00
76229;BME280;65021;53.174;18.160;2023-07-30T00:32:52;100242.77;;;16.92;100.00
76229;BME280;65021;53.174;18.160;2023-07-30T00:35:19;100246.52;;;16.91;100.00
76229;BME280;65021;53.174;18.160;2023-07-30T00:37:45;100251.58;;;16.91;100.00
76229;BME280;65021;53.174;18.160;2023-07-30T00:40:12;100250.60;;;16.89;100.00
76229;BME280;65021;53.174;18.160;2023-07-30T00:42:38;100256.85;;;16.88;100.00
76229;BME280;65021;53.174;18.160;2023-07-30T00:45:05;100263.73;;;16.85;100.00
76229;BME280;65021;53.174;18.160;2023-07-30T00:47:32;100265.48;;;16.82;100.00
76229;BME280;65021;53.174;18.160;2023-07-30T00:49:59;100263.41;;;16.80;100.00
76229;BME280;65021;53.174;18.160;2023-07-30T00:52:25;100261.27;;;16.77;100.00
76229;BME280;65021;53.174;18.160;2023-07-30T00:54:53;100261.82;;;16.72;100.00
76229;BME280;65021;53.174;18.160;2023-07-30T00:57:20;100264.95;;;16.69;100.00
76229;BME280;65021;53.174;18.160;2023-07-30T00:59:48;100266.96;;;16.65;100.00
76229;BME280;65021;53.174;18.160;2023-07-30T01:02:14;100272.47;;;16.65;100.00
76229;BME280;65021;53.174;18.160;2023-07-30T01:04:41;100274.60;;;16.66;100.00
76229;BME280;65021;53.174;18.160;2023-07-30T01:07:08;100272.89;;;16.66;100.00
76229;BME280;65021;53.174;18.160;2023-07-30T01:09:35;100272.71;;;16.67;100.00
76229;BME280;65021;53.174;18.160;2023-07-30T01:12:03;100270.87;;;16.67;100.00
76229;BME280;65021;53.174;18.160;2023-07-30T01:14:32;100273.88;;;16.69;100.00
76229;BME280;65021;53.174;18.160;2023-07-30T01:16:59;100274.17;;;16.71;100.00
76229;BME280;65021;53.174;18.160;2023-07-30T01:19:26;100272.75;;;16.74;100.00
76229;BME280;65021;53.174;18.160;2023-07-30T01:21:52;100274.94;;;16.74;100.00
76229;BME280;65021;53.174;18.160;2023-07-30T01:24:19;100275.11;;;16.73;100.00
76229;BME280;65021;53.174;18.160;2023-07-30T01:26:51;100274.41;;;16.71;100.00
76229;BME280;65021;53.174;18.160;2023-07-30T01:29:28;100274.31;;;16.70;100.00
76229;BME280;65021;53.174;18.160;2023-07-30T01:31:56;100271.75;;;16.68;100.00
76229;BME280;65021;53.174;18.160;2023-07-30T01:34:27;100268.39;;;16.68;100.00
76229;BME280;65021;53.174;18.160;2023-07-30T01:36:54;100267.78;;;16.67;100.00
76229;BME280;65021;53.174;18.160;2023-07-30T01:39:22;100266.78;;;16.66;100.00
76229;BME280;65021;53.174;18.160;2023-07-30T01:41:49;100263.38;;;16.64;100.00
76229;BME280;65021;53.174;18.160;2023-07-30T01:44:16;100266.88;;;16.63;100.00
76229;BME280;65021;53.174;18.160;2023-07-30T01:46:42;100271.04;;;16.62;100.00
76229;BME280;65021;53.174;18.160;2023-07-30T01:49:09;100270.38;;;16.61;100.00
76229;BME280;65021;53.174;18.160;2023-07-30T01:51:35;100269.46;;;16.62;100.00
76229;BME280;65021;53.174;18.160;2023-07-30T01:54:02;100268.70;;;16.61;100.00
76229;BME280;65021;53.174;18.160;2023-07-30T01:56:28;100272.72;;;16.63;100.00
76229;BME280;65021;53.174;18.160;2023-07-30T01:58:55;100269.40;;;16.63;100.00
76229;BME280;65021;53.174;18.160;2023-07-30T02:01:21;100270.85;;;16.65;100.00
76229;BME280;65021;53.174;18.160;2023-07-30T02:03:48;100274.38;;;16.65;100.00
76229;BME280;65021;53.174;18.160;2023-07-30T02:06:14;100276.45;;;16.66;100.00
76229;BME280;65021;53.174;18.160;2023-07-30T02:08:41;100277.68;;;16.66;100.00
76229;BME280;65021;53.174;18.160;2023-07-30T02:11:07;100277.21;;;16.66;100.00
76229;BME280;65021;53.174;18.160;2023-07-30T02:13:34;100279.49;;;16.68;100.00
76229;BME280;65021;53.174;18.160;2023-07-30T02:16:00;100281.27;;;16.69;100.00
76229;BME280;65021;53.174;18.160;2023-07-30T02:18:27;100280.11;;;16.69;100.00
76229;BME280;65021;53.174;18.160;2023-07-30T02:20:53;100282.18;;;16.70;100.00
76229;BME280;65021;53.174;18.160;2023-07-30T02:23:20;100285.83;;;16.69;100.00
76229;BME280;65021;53.174;18.160;2023-07-30T02:25:46;100287.69;;;16.69;100.00
76229;BME280;65021;53.174;18.160;2023-07-30T02:28:13;100292.91;;;16.68;100.00
76229;BME280;65021;53.174;18.160;2023-07-30T02:30:39;100299.70;;;16.68;100.00
76229;BME280;65021;53.174;18.160;2023-07-30T02:33:06;100302.44;;;16.68;100.00
76229;BME280;65021;53.174;18.160;2023-07-30T02:35:33;100300.91;;;16.69;100.00
76229;BME280;65021;53.174;18.160;2023-07-30T02:37:59;100299.17;;;16.70;100.00
76229;BME280;65021;53.174;18.160;2023-07-30T02:40:26;100297.55;;;16.70;100.00
76229;BME280;65021;53.174;18.160;2023-07-30T02:42:52;100294.57;;;16.70;100.00
76229;BME280;65021;53.174;18.160;2023-07-30T02:45:19;100293.02;;;16.69;100.00
76229;BME280;65021;53.174;18.160;2023-07-30T02:47:45;100292.41;;;16.67;100.00
76229;BME280;65021;53.174;18.160;2023-07-30T02:50:12;100287.83;;;16.66;100.00
76229;BME280;65021;53.174;18.160;2023-07-30T02:52:38;100292.70;;;16.63;100.00
76229;BME280;65021;53.174;18.160;2023-07-30T02:55:05;100292.67;;;16.60;100.00
76229;BME280;65021;53.174;18.160;2023-07-30T02:57:31;100297.81;;;16.57;100.00
76229;BME280;65021;53.174;18.160;2023-07-30T02:59:58;100299.25;;;16.52;100.00
76229;BME280;65021;53.174;18.160;2023-07-30T03:02:24;100301.57;;;16.49;100.00
76229;BME280;65021;53.174;18.160;2023-07-30T03:04:51;100306.52;;;16.48;100.00
76229;BME280;65021;53.174;18.160;2023-07-30T03:07:17;100301.20;;;16.47;100.00
76229;BME280;65021;53.174;18.160;2023-07-30T03:09:46;100296.21;;;16.46;100.00
76229;BME280;65021;53.174;18.160;2023-07-30T03:12:12;100296.23;;;16.46;100.00
76229;BME280;65021;53.174;18.160;2023-07-30T03:14:39;100294.53;;;16.46;100.00
76229;BME280;65021;53.174;18.160;2023-07-30T03:17:06;100298.84;;;16.48;100.00
76229;BME280;65021;53.174;18.160;2023-07-30T03:19:32;100301.39;;;16.49;100.00
76229;BME280;65021;53.174;18.160;2023-07-30T03:21:59;100302.52;;;16.51;100.00
76229;BME280;65021;53.174;18.160;2023-07-30T03:24:26;100300.31;;;16.54;100.00
76229;BME280;65021;53.174;18.160;2023-07-30T03:26:52;100301.63;;;16.58;100.00
76229;BME280;65021;53.174;18.160;2023-07-30T03:29:19;100303.30;;;16.63;100.00
76229;BME280;65021;53.174;18.160;2023-07-30T03:31:45;100303.62;;;16.69;100.00
76229;BME280;65021;53.174;18.160;2023-07-30T03:34:12;100301.05;;;16.74;100.00
76229;BME280;65021;53.174;18.160;2023-07-30T03:36:38;100303.67;;;16.79;100.00
76229;BME280;65021;53.174;18.160;2023-07-30T03:39:05;100307.77;;;16.85;100.00
76229;BME280;65021;53.174;18.160;2023-07-30T03:41:31;100306.34;;;16.90;100.00
76229;BME280;65021;53.174;18.160;2023-07-30T03:43:58;100305.60;;;16.96;100.00
76229;BME280;65021;53.174;18.160;2023-07-30T03:46:24;100306.21;;;17.01;100.00
76229;BME280;65021;53.174;18.160;2023-07-30T03:48:51;100307.93;;;17.08;100.00
76229;BME280;65021;53.174;18.160;2023-07-30T03:51:17;100305.10;;;17.14;100.00
76229;BME280;65021;53.174;18.160;2023-07-30T03:53:44;100303.80;;;17.19;100.00
76229;BME280;65021;53.174;18.160;2023-07-30T03:56:11;100305.06;;;17.25;100.00
76229;BME280;65021;53.174;18.160;2023-07-30T03:58:37;100306.71;;;17.31;100.00
76229;BME280;65021;53.174;18.160;2023-07-30T04:01:04;100305.92;;;17.36;100.00
76229;BME280;65021;53.174;18.160;2023-07-30T04:03:30;100307.27;;;17.40;100.00
76229;BME280;65021;53.174;18.160;2023-07-30T04:05:57;100306.64;;;17.44;100.00
76229;BME280;65021;53.174;18.160;2023-07-30T04:08:23;100305.67;;;17.49;100.00
76229;BME280;65021;53.174;18.160;2023-07-30T04:10:50;100308.71;;;17.53;100.00
76229;BME280;65021;53.174;18.160;2023-07-30T04:13:16;100318.06;;;17.58;100.00
76229;BME280;65021;53.174;18.160;2023-07-30T04:15:43;100326.84;;;17.60;100.00
76229;BME280;65021;53.174;18.160;2023-07-30T04:18:09;100326.67;;;17.60;100.00
76229;BME280;65021;53.174;18.160;2023-07-30T04:20:36;100324.23;;;17.62;100.00
76229;BME280;65021;53.174;18.160;2023-07-30T04:23:02;100319.36;;;17.61;100.00
76229;BME280;65021;53.174;18.160;2023-07-30T04:25:29;100325.65;;;17.61;100.00
76229;BME280;65021;53.174;18.160;2023-07-30T04:27:55;100325.02;;;17.63;100.00
76229;BME280;65021;53.174;18.160;2023-07-30T04:30:22;100326.14;;;17.66;100.00
76229;BME280;65021;53.174;18.160;2023-07-30T04:32:48;100326.70;;;17.70;100.00
76229;BME280;65021;53.174;18.160;2023-07-30T04:35:15;100330.34;;;17.74;100.00
76229;BME280;65021;53.174;18.160;2023-07-30T04:37:42;100326.73;;;17.79;100.00
76229;BME280;65021;53.174;18.160;2023-07-30T04:40:09;100331.38;;;17.84;100.00
76229;BME280;65021;53.174;18.160;2023-07-30T04:42:36;100341.28;;;17.87;100.00
76229;BME280;65021;53.174;18.160;2023-07-30T04:45:03;100341.30;;;17.89;100.00
76229;BME280;65021;53.174;18.160;2023-07-30T04:47:29;100343.96;;;17.92;100.00
76229;BME280;65021;53.174;18.160;2023-07-30T04:49:56;100343.79;;;17.96;100.00
76229;BME280;65021;53.174;18.160;2023-07-30T04:52:22;100348.32;;;18.01;100.00
76229;BME280;65021;53.174;18.160;2023-07-30T04:54:49;100349.80;;;18.06;100.00
76229;BME280;65021;53.174;18.160;2023-07-30T04:57:15;100355.95;;;18.10;100.00
76229;BME280;65021;53.174;18.160;2023-07-30T04:59:42;100353.36;;;18.12;100.00
76229;BME280;65021;53.174;18.160;2023-07-30T05:02:08;100356.75;;;18.15;100.00
76229;BME280;65021;53.174;18.160;2023-07-30T05:04:35;100359.41;;;18.17;100.00
76229;BME280;65021;53.174;18.160;2023-07-30T05:07:01;100362.43;;;18.22;100.00
76229;BME280;65021;53.174;18.160;2023-07-30T05:09:28;100357.60;;;18.28;100.00
76229;BME280;65021;53.174;18.160;2023-07-30T05:11:54;100359.50;;;18.38;100.00
76229;BME280;65021;53.174;18.160;2023-07-30T05:14:21;100358.59;;;18.48;100.00
76229;BME280;65021;53.174;18.160;2023-07-30T05:16:47;100356.38;;;18.57;100.00
76229;BME280;65021;53.174;18.160;2023-07-30T05:19:15;100360.37;;;18.67;100.00
76229;BME280;65021;53.174;18.160;2023-07-30T05:21:42;100357.97;;;18.78;100.00
76229;BME280;65021;53.174;18.160;2023-07-30T05:24:08;100361.92;;;18.84;100.00
76229;BME280;65021;53.174;18.160;2023-07-30T05:26:35;100359.49;;;18.93;100.00
76229;BME280;65021;53.174;18.160;2023-07-30T05:29:01;100360.13;;;19.09;100.00
76229;BME280;65021;53.174;18.160;2023-07-30T05:31:29;100363.53;;;19.19;100.00
76229;BME280;65021;53.174;18.160;2023-07-30T05:33:56;100366.15;;;19.34;100.00
76229;BME280;65021;53.174;18.160;2023-07-30T05:36:22;100372.25;;;19.44;100.00
76229;BME280;65021;53.174;18.160;2023-07-30T05:38:49;100369.04;;;19.53;100.00
76229;BME280;65021;53.174;18.160;2023-07-30T05:41:16;100372.77;;;19.65;100.00
76229;BME280;65021;53.174;18.160;2023-07-30T05:43:42;100375.69;;;19.80;100.00
76229;BME280;65021;53.174;18.160;2023-07-30T05:46:09;100371.31;;;19.98;100.00
76229;BME280;65021;53.174;18.160;2023-07-30T05:48:35;100366.23;;;20.08;100.00
76229;BME280;65021;53.174;18.160;2023-07-30T05:51:02;100367.37;;;20.14;99.93
76229;BME280;65021;53.174;18.160;2023-07-30T05:53:28;100370.52;;;20.20;99.86
76229;BME280;65021;53.174;18.160;2023-07-30T05:55:55;100373.69;;;20.28;99.93
76229;BME280;65021;53.174;18.160;2023-07-30T05:58:22;100372.38;;;20.35;99.86
76229;BME280;65021;53.174;18.160;2023-07-30T06:00:48;100373.09;;;20.40;99.70
76229;BME280;65021;53.174;18.160;2023-07-30T06:03:15;100377.27;;;20.43;99.60
76229;BME280;65021;53.174;18.160;2023-07-30T06:05:42;100379.81;;;20.38;99.53
76229;BME280;65021;53.174;18.160;2023-07-30T06:08:09;100381.41;;;20.30;99.57
76229;BME280;65021;53.174;18.160;2023-07-30T06:10:36;100384.66;;;20.26;99.07
76229;BME280;65021;53.174;18.160;2023-07-30T06:13:03;100386.01;;;20.19;99.15
76229;BME280;65021;53.174;18.160;2023-07-30T06:15:31;100388.29;;;20.23;99.41
76229;BME280;65021;53.174;18.160;2023-07-30T06:17:58;100384.41;;;20.30;99.18
76229;BME280;65021;53.174;18.160;2023-07-30T06:20:25;100385.73;;;20.30;98.12
76229;BME280;65021;53.174;18.160;2023-07-30T06:22:51;100384.94;;;20.21;98.21
76229;BME280;65021;53.174;18.160;2023-07-30T06:25:18;100389.39;;;20.25;98.46
76229;BME280;65021;53.174;18.160;2023-07-30T06:27:44;100397.58;;;20.29;98.77
76229;BME280;65021;53.174;18.160;2023-07-30T06:30:11;100397.44;;;20.33;98.51
76229;BME280;65021;53.174;18.160;2023-07-30T06:32:38;100395.55;;;20.35;98.64
76229;BME280;65021;53.174;18.160;2023-07-30T06:35:05;100398.23;;;20.41;98.21
76229;BME280;65021;53.174;18.160;2023-07-30T06:37:31;100396.55;;;20.44;97.88
76229;BME280;65021;53.174;18.160;2023-07-30T06:39:59;100391.42;;;20.50;97.51
76229;BME280;65021;53.174;18.160;2023-07-30T06:42:25;100391.77;;;20.62;97.81
76229;BME280;65021;53.174;18.160;2023-07-30T06:44:52;100392.67;;;20.77;97.97
76229;BME280;65021;53.174;18.160;2023-07-30T06:47:18;100389.65;;;20.89;97.52
76229;BME280;65021;53.174;18.160;2023-07-30T06:49:45;100391.32;;;20.94;97.42
76229;BME280;65021;53.174;18.160;2023-07-30T06:52:11;100391.33;;;20.96;97.09
76229;BME280;65021;53.174;18.160;2023-07-30T06:54:38;100390.64;;;21.00;97.16
76229;BME280;65021;53.174;18.160;2023-07-30T06:57:04;100389.34;;;21.11;96.94
76229;BME280;65021;53.174;18.160;2023-07-30T06:59:31;100388.56;;;21.40;96.63
76229;BME280;65021;53.174;18.160;2023-07-30T07:01:58;100382.09;;;21.71;95.94
76229;BME280;65021;53.174;18.160;2023-07-30T07:04:25;100383.39;;;21.95;95.48
76229;BME280;65021;53.174;18.160;2023-07-30T07:06:52;100379.46;;;22.21;94.99
76229;BME280;65021;53.174;18.160;2023-07-30T07:09:19;100381.16;;;22.54;92.75
76229;BME280;65021;53.174;18.160;2023-07-30T07:11:45;100382.48;;;22.57;92.45
76229;BME280;65021;53.174;18.160;2023-07-30T07:14:12;100379.61;;;22.62;90.46
76229;BME280;65021;53.174;18.160;2023-07-30T07:16:38;100374.11;;;22.71;91.51
76229;BME280;65021;53.174;18.160;2023-07-30T07:19:05;100373.71;;;22.78;88.77
76229;BME280;65021;53.174;18.160;2023-07-30T07:21:32;100372.05;;;23.01;89.94
76229;BME280;65021;53.174;18.160;2023-07-30T07:23:59;100375.56;;;23.18;90.03
76229;BME280;65021;53.174;18.160;2023-07-30T07:26:25;100380.58;;;23.36;86.97
76229;BME280;65021;53.174;18.160;2023-07-30T07:28:52;100377.39;;;23.34;87.42
76229;BME280;65021;53.174;18.160;2023-07-30T07:31:18;100381.41;;;23.32;89.14
76229;BME280;65021;53.174;18.160;2023-07-30T07:33:45;100381.92;;;23.47;86.95
76229;BME280;65021;53.174;18.160;2023-07-30T07:36:12;100386.84;;;23.37;86.02
76229;BME280;65021;53.174;18.160;2023-07-30T07:38:40;100392.63;;;23.11;85.04
76229;BME280;65021;53.174;18.160;2023-07-30T07:41:07;100388.90;;;23.01;84.48
76229;BME280;65021;53.174;18.160;2023-07-30T07:43:33;100388.70;;;22.99;86.99
76229;BME280;65021;53.174;18.160;2023-07-30T07:46:00;100390.26;;;23.34;87.22
76229;BME280;65021;53.174;18.160;2023-07-30T07:48:27;100388.10;;;23.73;86.20
76229;BME280;65021;53.174;18.160;2023-07-30T07:50:54;100383.86;;;23.84;84.36
76229;BME280;65021;53.174;18.160;2023-07-30T07:53:20;100385.02;;;23.90;84.48
76229;BME280;65021;53.174;18.160;2023-07-30T07:55:47;100385.42;;;24.04;83.80
76229;BME280;65021;53.174;18.160;2023-07-30T07:58:14;100383.79;;;24.16;83.91
76229;BME280;65021;53.174;18.160;2023-07-30T08:00:41;100383.17;;;24.34;83.60
76229;BME280;65021;53.174;18.160;2023-07-30T08:03:07;100377.16;;;24.61;83.57
76229;BME280;65021;53.174;18.160;2023-07-30T08:05:34;100381.48;;;24.87;82.72
76229;BME280;65021;53.174;18.160;2023-07-30T08:08:02;100383.84;;;25.03;81.90
76229;BME280;65021;53.174;18.160;2023-07-30T08:10:29;100384.50;;;25.03;82.50
76229;BME280;65021;53.174;18.160;2023-07-30T08:12:55;100387.29;;;25.08;79.66
76229;BME280;65021;53.174;18.160;2023-07-30T08:15:22;100388.15;;;24.92;79.01
76229;BME280;65021;53.174;18.160;2023-07-30T08:17:48;100392.91;;;24.72;80.28
76229;BME280;65021;53.174;18.160;2023-07-30T08:20:15;100395.12;;;24.72;81.39
76229;BME280;65021;53.174;18.160;2023-07-30T08:22:41;100396.98;;;24.84;80.83
76229;BME280;65021;53.174;18.160;2023-07-30T08:25:08;100401.11;;;24.67;79.15
76229;BME280;65021;53.174;18.160;2023-07-30T08:27:34;100404.52;;;24.50;79.34
76229;BME280;65021;53.174;18.160;2023-07-30T08:30:01;100410.48;;;24.42;79.37
76229;BME280;65021;53.174;18.160;2023-07-30T08:32:28;100417.11;;;24.31;78.25
76229;BME280;65021;53.174;18.160;2023-07-30T08:34:55;100416.09;;;24.16;79.84
76229;BME280;65021;53.174;18.160;2023-07-30T08:37:21;100418.21;;;24.05;79.84
76229;BME280;65021;53.174;18.160;2023-07-30T08:39:48;100419.33;;;24.02;79.71
76229;BME280;65021;53.174;18.160;2023-07-30T08:42:15;100420.56;;;24.28;80.05
76229;BME280;65021;53.174;18.160;2023-07-30T08:44:41;100416.23;;;24.68;79.72
76229;BME280;65021;53.174;18.160;2023-07-30T08:47:08;100410.47;;;24.91;79.49
76229;BME280;65021;53.174;18.160;2023-07-30T08:49:35;100412.80;;;24.99;79.03
76229;BME280;65021;53.174;18.160;2023-07-30T08:52:03;100416.52;;;25.03;78.00
76229;BME280;65021;53.174;18.160;2023-07-30T08:54:31;100420.06;;;24.77;77.36
76229;BME280;65021;53.174;18.160;2023-07-30T08:56:58;100420.08;;;24.33;76.55
76229;BME280;65021;53.174;18.160;2023-07-30T08:59:27;100424.34;;;24.00;78.01
76229;BME280;65021;53.174;18.160;2023-07-30T09:01:57;100421.70;;;24.03;78.87
76229;BME280;65021;53.174;18.160;2023-07-30T09:04:24;100421.15;;;24.23;78.73
76229;BME280;65021;53.174;18.160;2023-07-30T09:06:51;100424.98;;;24.46;78.05
76229;BME280;65021;53.174;18.160;2023-07-30T09:09:17;100418.85;;;24.55;77.52
76229;BME280;65021;53.174;18.160;2023-07-30T09:11:51;100419.13;;;24.50;76.82
76229;BME280;65021;53.174;18.160;2023-07-30T09:14:19;100417.48;;;24.51;76.09
76229;BME280;65021;53.174;18.160;2023-07-30T09:16:46;100419.52;;;24.52;76.49
76229;BME280;65021;53.174;18.160;2023-07-30T09:19:17;100422.49;;;24.47;76.22
76229;BME280;65021;53.174;18.160;2023-07-30T09:21:44;100424.45;;;24.47;75.34
76229;BME280;65021;53.174;18.160;2023-07-30T09:24:10;100424.88;;;24.39;74.21
76229;BME280;65021;53.174;18.160;2023-07-30T09:26:44;100422.74;;;24.61;75.12
76229;BME280;65021;53.174;18.160;2023-07-30T09:29:10;100425.27;;;24.89;74.14
76229;BME280;65021;53.174;18.160;2023-07-30T09:31:51;100428.06;;;24.88;71.98
76229;BME280;65021;53.174;18.160;2023-07-30T09:34:20;100437.88;;;24.58;71.82
76229;BME280;65021;53.174;18.160;2023-07-30T09:36:49;100438.08;;;24.30;73.24
76229;BME280;65021;53.174;18.160;2023-07-30T09:41:42;100437.52;;;24.55;74.47
76229;BME280;65021;53.174;18.160;2023-07-30T09:44:09;100440.48;;;24.79;74.90
76229;BME280;65021;53.174;18.160;2023-07-30T09:46:47;100439.20;;;24.97;74.30
76229;BME280;65021;53.174;18.160;2023-07-30T09:49:15;100440.79;;;25.07;74.18
76229;BME280;65021;53.174;18.160;2023-07-30T09:51:42;100439.17;;;25.13;73.97
76229;BME280;65021;53.174;18.160;2023-07-30T09:54:12;100439.35;;;25.18;72.42
76229;BME280;65021;53.174;18.160;2023-07-30T09:56:40;100440.70;;;25.09;72.35
76229;BME280;65021;53.174;18.160;2023-07-30T09:59:08;100444.47;;;25.07;73.43
76229;BME280;65021;53.174;18.160;2023-07-30T10:01:44;100448.48;;;25.17;71.18
76229;BME280;65021;53.174;18.160;2023-07-30T10:04:12;100451.14;;;24.88;68.51
76229;BME280;65021;53.174;18.160;2023-07-30T10:07:06;100447.43;;;24.63;70.69
76229;BME280;65021;53.174;18.160;2023-07-30T10:09:39;100448.60;;;24.63;71.81
76229;BME280;65021;53.174;18.160;2023-07-30T10:12:12;100449.33;;;24.64;71.71
76229;BME280;65021;53.174;18.160;2023-07-30T10:14:40;100443.88;;;24.60;71.52
76229;BME280;65021;53.174;18.160;2023-07-30T10:17:10;100441.38;;;24.50;70.06
76229;BME280;65021;53.174;18.160;2023-07-30T10:19:37;100435.58;;;24.39;70.06
76229;BME280;65021;53.174;18.160;2023-07-30T10:24:40;100434.93;;;24.31;72.05
76229;BME280;65021;53.174;18.160;2023-07-30T10:27:08;100438.27;;;24.49;72.25
76229;BME280;65021;53.174;18.160;2023-07-30T10:29:36;100442.41;;;24.71;71.71
76229;BME280;65021;53.174;18.160;2023-07-30T10:32:07;100438.38;;;24.81;70.26
76229;BME280;65021;53.174;18.160;2023-07-30T10:34:46;100434.56;;;24.90;70.07
76229;BME280;65021;53.174;18.160;2023-07-30T10:37:20;100434.08;;;24.92;68.35
76229;BME280;65021;53.174;18.160;2023-07-30T10:39:50;100435.91;;;24.78;67.56
76229;BME280;65021;53.174;18.160;2023-07-30T10:42:17;100435.28;;;24.73;68.18
76229;BME280;65021;53.174;18.160;2023-07-30T10:44:45;100429.79;;;24.93;68.93
76229;BME280;65021;53.174;18.160;2023-07-30T10:47:12;100431.37;;;25.16;68.81
76229;BME280;65021;53.174;18.160;2023-07-30T10:49:39;100433.90;;;25.23;68.44
76229;BME280;65021;53.174;18.160;2023-07-30T10:52:07;100434.53;;;25.09;67.04
76229;BME280;65021;53.174;18.160;2023-07-30T10:54:34;100436.29;;;24.88;67.21
76229;BME280;65021;53.174;18.160;2023-07-30T10:57:01;100441.46;;;24.65;67.50
76229;BME280;65021;53.174;18.160;2023-07-30T10:59:35;100441.36;;;24.47;67.84
76229;BME280;65021;53.174;18.160;2023-07-30T11:02:03;100437.05;;;24.43;67.41
76229;BME280;65021;53.174;18.160;2023-07-30T11:04:33;100436.19;;;24.48;68.11
76229;BME280;65021;53.174;18.160;2023-07-30T11:07:00;100434.65;;;24.54;67.06
76229;BME280;65021;53.174;18.160;2023-07-30T11:09:27;100436.90;;;24.56;68.67
76229;BME280;65021;53.174;18.160;2023-07-30T11:11:55;100435.16;;;24.55;68.37
76229;BME280;65021;53.174;18.160;2023-07-30T11:14:23;100433.80;;;24.51;68.56
76229;BME280;65021;53.174;18.160;2023-07-30T11:16:57;100431.79;;;24.52;68.49
76229;BME280;65021;53.174;18.160;2023-07-30T11:19:27;100427.73;;;24.63;68.70
76229;BME280;65021;53.174;18.160;2023-07-30T11:21:55;100427.33;;;24.69;68.01
76229;BME280;65021;53.174;18.160;2023-07-30T11:24:33;100415.56;;;24.97;67.04
76229;BME280;65021;53.174;18.160;2023-07-30T11:27:00;100413.40;;;25.07;67.10
76229;BME280;65021;53.174;18.160;2023-07-30T11:29:27;100408.43;;;25.31;68.11
76229;BME280;65021;53.174;18.160;2023-07-30T11:31:58;100403.86;;;25.54;66.84
76229;BME280;65021;53.174;18.160;2023-07-30T11:34:28;100401.39;;;25.30;63.53
76229;BME280;65021;53.174;18.160;2023-07-30T11:36:56;100405.25;;;25.21;64.01
76229;BME280;65021;53.174;18.160;2023-07-30T11:39:23;100399.88;;;25.17;64.04
76229;BME280;65021;53.174;18.160;2023-07-30T11:41:52;100398.96;;;25.28;65.00
76229;BME280;65021;53.174;18.160;2023-07-30T11:44:34;100401.70;;;25.60;64.82
76229;BME280;65021;53.174;18.160;2023-07-30T11:47:01;100400.41;;;25.91;63.12
76229;BME280;65021;53.174;18.160;2023-07-30T11:49:30;100402.45;;;25.97;61.06
76229;BME280;65021;53.174;18.160;2023-07-30T11:52:07;100407.46;;;25.98;61.86
76229;BME280;65021;53.174;18.160;2023-07-30T11:54:34;100405.49;;;26.12;62.96
76229;BME280;65021;53.174;18.160;2023-07-30T11:57:01;100397.29;;;26.26;63.17
76229;BME280;65021;53.174;18.160;2023-07-30T11:59:30;100396.09;;;26.34;61.88
76229;BME280;65021;53.174;18.160;2023-07-30T12:01:57;100388.92;;;26.23;60.62
76229;BME280;65021;53.174;18.160;2023-07-30T12:04:24;100389.83;;;26.21;61.63
76229;BME280;65021;53.174;18.160;2023-07-30T12:06:52;100387.65;;;26.27;60.50
76229;BME280;65021;53.174;18.160;2023-07-30T12:09:20;100384.94;;;26.21;59.24
76229;BME280;65021;53.174;18.160;2023-07-30T12:11:57;100382.86;;;26.08;60.19
76229;BME280;65021;53.174;18.160;2023-07-30T12:14:27;100379.42;;;25.99;59.90
76229;BME280;65021;53.174;18.160;2023-07-30T12:16:57;100378.44;;;25.91;60.41
76229;BME280;65021;53.174;18.160;2023-07-30T12:19:23;100376.14;;;25.90;60.32
76229;BME280;65021;53.174;18.160;2023-07-30T12:21:50;100373.08;;;25.89;59.28
76229;BME280;65021;53.174;18.160;2023-07-30T12:24:17;100370.88;;;25.86;60.31
76229;BME280;65021;53.174;18.160;2023-07-30T12:26:43;100369.91;;;25.82;58.37
76229;BME280;65021;53.174;18.160;2023-07-30T12:29:10;100369.24;;;25.79;60.44
76229;BME280;65021;53.174;18.160;2023-07-30T12:31:37;100368.47;;;25.90;58.75
76229;BME280;65021;53.174;18.160;2023-07-30T12:34:04;100364.80;;;25.98;58.10
76229;BME280;65021;53.174;18.160;2023-07-30T12:36:31;100362.70;;;25.93;57.09
76229;BME280;65021;53.174;18.160;2023-07-30T12:38:58;100362.79;;;25.93;59.05
76229;BME280;65021;53.174;18.160;2023-07-30T12:41:24;100361.13;;;26.17;59.38